sensor_id;sensor_type;location;lat;lon;timestamp;pressure;altitude;pressure_sealevel;temperature;humidity
7407;BME280;3745;56.964;24.128;2023-05-12T00:00:44;102527.88;;;12.99;100.00
7407;BME280;3745;56.964;24.128;2023-05-12T00:03:09;102511.38;;;12.87;100.00
7407;BME280;3745;56.964;24.128;2023-05-12T00:05:35;102509.44;;;12.80;100.00
7407;BME280;3745;56.964;24.128;2023-05-12T00:08:00;102515.50;;;12.83;100.00
7407;BME280;3745;56.964;24.128;2023-05-12T00:10:26;102521.31;;;12.79;100.00
7407;BME280;3745;56.964;24.128;2023-05-12T00:12:52;102518.63;;;12.75;100.00
7407;BME280;3745;56.964;24.128;2023-05-12T00:15:20;102527.97;;;12.76;100.00
7407;BME280;3745;56.964;24.128;2023-05-12T00:17:45;102476.38;;;12.52;100.00
7407;BME280;3745;56.964;24.128;2023-05-12T00:20:11;102519.59;;;12.80;100.00
7407;BME280;3745;56.964;24.128;2023-05-12T00:22:38;102527.22;;;12.80;100.00
7407;BME280;3745;56.964;24.128;2023-05-12T00:25:04;102521.16;;;12.75;100.00
7407;BME280;3745;56.964;24.128;2023-05-12T00:27:30;102501.34;;;12.65;100.00
7407;BME280;3745;56.964;24.128;2023-05-12T00:29:57;102518.47;;;12.70;100.00
7407;BME280;3745;56.964;24.128;2023-05-12T00:32:23;102479.63;;;12.47;100.00
7407;BME280;3745;56.964;24.128;2023-05-12T00:34:49;102508.88;;;12.62;100.00
7407;BME280;3745;56.964;24.128;2023-05-12T00:37:17;102531.03;;;12.66;100.00
7407;BME280;3745;56.964;24.128;2023-05-12T00:39:43;102533.44;;;12.61;100.00
7407;BME280;3745;56.964;24.128;2023-05-12T00:42:08;102481.34;;;12.23;100.00
7407;BME280;3745;56.964;24.128;2023-05-12T00:44:36;102535.59;;;12.50;100.00
7407;BME280;3745;56.964;24.128;2023-05-12T00:47:03;102531.28;;;12.48;100.00
7407;BME280;3745;56.964;24.128;2023-05-12T00:49:30;102515.66;;;12.36;100.00
7407;BME280;3745;56.964;24.128;2023-05-12T00:51:57;102524.81;;;12.32;100.00
7407;BME280;3745;56.964;24.128;2023-05-12T00:54:24;102534.06;;;12.30;100.00
7407;BME280;3745;56.964;24.128;2023-05-12T00:56:50;102531.19;;;12.21;100.00
7407;BME280;3745;56.964;24.128;2023-05-12T00:59:16;102478.63;;;11.93;100.00
7407;BME280;3745;56.964;24.128;2023-05-12T01:01:41;102538.81;;;12.21;100.00
7407;BME280;3745;56.964;24.128;2023-05-12T01:04:07;102533.38;;;12.11;100.00
7407;BME280;3745;56.964;24.128;2023-05-12T01:06:38;102523.78;;;12.02;100.00
7407;BME280;3745;56.964;24.128;2023-05-12T01:09:08;102529.75;;;12.04;100.00
7407;BME280;3745;56.964;24.128;2023-05-12T01:11:34;102549.59;;;12.14;100.00
7407;BME280;3745;56.964;24.128;2023-05-12T01:13:59;102551.19;;;12.12;100.00
7407;BME280;3745;56.964;24.128;2023-05-12T01:16:30;102559.84;;;12.17;100.00
7407;BME280;3745;56.964;24.128;2023-05-12T01:18:57;102561.44;;;12.15;100.00
7407;BME280;3745;56.964;24.128;2023-05-12T01:21:23;102565.56;;;12.12;100.00
7407;BME280;3745;56.964;24.128;2023-05-12T01:23:57;102555.94;;;12.03;100.00
7407;BME280;3745;56.964;24.128;2023-05-12T01:26:24;102568.84;;;12.09;100.00
7407;BME280;3745;56.964;24.128;2023-05-12T01:28:50;102571.16;;;12.03;100.00
7407;BME280;3745;56.964;24.128;2023-05-12T01:31:16;102543.47;;;11.85;100.00
7407;BME280;3745;56.964;24.128;2023-05-12T01:33:42;102576.66;;;11.91;100.00
7407;BME280;3745;56.964;24.128;2023-05-12T01:36:08;102548.97;;;11.74;100.00
7407;BME280;3745;56.964;24.128;2023-05-12T01:38:33;102539.13;;;11.61;100.00
7407;BME280;3745;56.964;24.128;2023-05-12T01:40:59;102571.16;;;11.79;100.00
7407;BME280;3745;56.964;24.128;2023-05-12T01:43:25;102577.09;;;11.80;100.00
7407;BME280;3745;56.964;24.128;2023-05-12T01:45:50;102577.13;;;11.81;100.00
7407;BME280;3745;56.964;24.128;2023-05-12T01:48:16;102546.06;;;11.65;100.00
7407;BME280;3745;56.964;24.128;2023-05-12T01:50:41;102576.09;;;11.76;100.00
7407;BME280;3745;56.964;24.128;2023-05-12T01:53:07;102575.34;;;11.79;100.00
7407;BME280;3745;56.964;24.128;2023-05-12T01:55:35;102571.78;;;11.74;100.00
7407;BME280;3745;56.964;24.128;2023-05-12T01:58:01;102509.66;;;11.40;100.00
7407;BME280;3745;56.964;24.128;2023-05-12T02:00:26;102521.59;;;11.44;100.00
7407;BME280;3745;56.964;24.128;2023-05-12T02:02:52;102571.72;;;11.72;100.00
7407;BME280;3745;56.964;24.128;2023-05-12T02:05:17;102581.28;;;11.79;100.00
7407;BME280;3745;56.964;24.128;2023-05-12T02:07:43;102575.22;;;11.76;100.00
7407;BME280;3745;56.964;24.128;2023-05-12T02:10:09;102587.75;;;11.71;100.00
7407;BME280;3745;56.964;24.128;2023-05-12T02:12:35;102581.69;;;11.68;100.00
7407;BME280;3745;56.964;24.128;2023-05-12T02:15:00;102577.97;;;11.60;100.00
7407;BME280;3745;56.964;24.128;2023-05-12T02:17:26;102522.66;;;11.27;100.00
7407;BME280;3745;56.964;24.128;2023-05-12T02:19:53;102588.38;;;11.66;100.00
7407;BME280;3745;56.964;24.128;2023-05-12T02:22:18;102572.78;;;11.57;100.00
7407;BME280;3745;56.964;24.128;2023-05-12T02:24:44;102565.88;;;11.53;100.00
7407;BME280;3745;56.964;24.128;2023-05-12T02:27:10;102598.91;;;11.75;100.00
7407;BME280;3745;56.964;24.128;2023-05-12T02:29:35;102592.50;;;11.64;100.00
7407;BME280;3745;56.964;24.128;2023-05-12T02:32:03;102581.22;;;11.56;100.00
7407;BME280;3745;56.964;24.128;2023-05-12T02:34:28;102614.53;;;11.65;100.00
7407;BME280;3745;56.964;24.128;2023-05-12T02:36:54;102568.75;;;11.39;100.00
7407;BME280;3745;56.964;24.128;2023-05-12T02:39:19;102537.41;;;11.15;100.00
7407;BME280;3745;56.964;24.128;2023-05-12T02:41:45;102616.09;;;11.61;100.00
7407;BME280;3745;56.964;24.128;2023-05-12T02:44:10;102620.03;;;11.55;100.00
7407;BME280;3745;56.964;24.128;2023-05-12T02:46:36;102613.22;;;11.54;100.00
7407;BME280;3745;56.964;24.128;2023-05-12T02:49:02;102614.63;;;11.46;100.00
7407;BME280;3745;56.964;24.128;2023-05-12T02:51:29;102592.94;;;11.31;100.00
7407;BME280;3745;56.964;24.128;2023-05-12T02:53:54;102618.81;;;11.45;100.00
7407;BME280;3745;56.964;24.128;2023-05-12T02:56:20;102617.94;;;11.44;100.00
7407;BME280;3745;56.964;24.128;2023-05-12T02:58:46;102623.03;;;11.44;100.00
7407;BME280;3745;56.964;24.128;2023-05-12T03:01:12;102621.31;;;11.43;100.00
7407;BME280;3745;56.964;24.128;2023-05-12T03:03:38;102604.13;;;11.36;100.00
7407;BME280;3745;56.964;24.128;2023-05-12T03:06:04;102628.56;;;11.57;100.00
7407;BME280;3745;56.964;24.128;2023-05-12T03:08:30;102578.53;;;11.30;100.00
7407;BME280;3745;56.964;24.128;2023-05-12T03:10:56;102624.97;;;11.72;100.00
7407;BME280;3745;56.964;24.128;2023-05-12T03:13:21;102629.34;;;11.75;100.00
7407;BME280;3745;56.964;24.128;2023-05-12T03:15:47;102608.66;;;11.66;100.00
7407;BME280;3745;56.964;24.128;2023-05-12T03:18:12;102582.81;;;11.54;100.00
7407;BME280;3745;56.964;24.128;2023-05-12T03:20:38;102626.19;;;11.82;100.00
7407;BME280;3745;56.964;24.128;2023-05-12T03:23:04;102627.94;;;11.83;100.00
7407;BME280;3745;56.964;24.128;2023-05-12T03:25:29;102622.22;;;11.88;100.00
7407;BME280;3745;56.964;24.128;2023-05-12T03:27:55;102618.34;;;11.98;100.00
7407;BME280;3745;56.964;24.128;2023-05-12T03:30:21;102614.91;;;11.96;100.00
7407;BME280;3745;56.964;24.128;2023-05-12T03:32:46;102620.31;;;12.05;100.00
7407;BME280;3745;56.964;24.128;2023-05-12T03:35:12;102625.84;;;12.17;100.00
7407;BME280;3745;56.964;24.128;2023-05-12T03:37:37;102629.50;;;12.25;100.00
7407;BME280;3745;56.964;24.128;2023-05-12T03:40:03;102614.16;;;12.22;100.00
7407;BME280;3745;56.964;24.128;2023-05-12T03:42:30;102631.69;;;12.38;100.00
7407;BME280;3745;56.964;24.128;2023-05-12T03:44:56;102625.91;;;12.42;100.00
7407;BME280;3745;56.964;24.128;2023-05-12T03:47:22;102619.09;;;12.41;100.00
7407;BME280;3745;56.964;24.128;2023-05-12T03:49:47;102625.41;;;12.52;100.00
7407;BME280;3745;56.964;24.128;2023-05-12T03:52:13;102627.44;;;12.63;100.00
7407;BME280;3745;56.964;24.128;2023-05-12T03:54:38;102614.75;;;12.63;100.00
7407;BME280;3745;56.964;24.128;2023-05-12T03:57:04;102615.06;;;12.72;100.00
7407;BME280;3745;56.964;24.128;2023-05-12T03:59:31;102600.72;;;12.74;100.00
7407;BME280;3745;56.964;24.128;2023-05-12T04:01:57;102619.84;;;12.88;100.00
7407;BME280;3745;56.964;24.128;2023-05-12T04:04:22;102621.06;;;12.99;100.00
7407;BME280;3745;56.964;24.128;2023-05-12T04:06:48;102623.94;;;13.08;100.00
7407;BME280;3745;56.964;24.128;2023-05-12T04:09:14;102634.50;;;13.20;100.00
7407;BME280;3745;56.964;24.128;2023-05-12T04:11:43;102605.31;;;13.09;100.00
7407;BME280;3745;56.964;24.128;2023-05-12T04:14:08;102621.34;;;13.33;100.00
7407;BME280;3745;56.964;24.128;2023-05-12T04:16:34;102623.47;;;13.46;100.00
7407;BME280;3745;56.964;24.128;2023-05-12T04:19:01;102627.09;;;13.54;100.00
7407;BME280;3745;56.964;24.128;2023-05-12T04:21:26;102633.59;;;13.73;100.00
7407;BME280;3745;56.964;24.128;2023-05-12T04:23:52;102603.84;;;13.71;100.00
7407;BME280;3745;56.964;24.128;2023-05-12T04:26:18;102633.38;;;13.94;100.00
7407;BME280;3745;56.964;24.128;2023-05-12T04:28:43;102600.84;;;13.84;100.00
7407;BME280;3745;56.964;24.128;2023-05-12T04:31:09;102597.56;;;13.88;100.00
7407;BME280;3745;56.964;24.128;2023-05-12T04:33:34;102628.50;;;14.01;100.00
7407;BME280;3745;56.964;24.128;2023-05-12T04:36:00;102645.91;;;14.16;100.00
7407;BME280;3745;56.964;24.128;2023-05-12T04:38:25;102652.00;;;14.21;100.00
7407;BME280;3745;56.964;24.128;2023-05-12T04:40:59;102648.78;;;14.28;100.00
7407;BME280;3745;56.964;24.128;2023-05-12T04:43:25;102634.28;;;14.26;100.00
7407;BME280;3745;56.964;24.128;2023-05-12T04:45:51;102643.09;;;14.35;100.00
7407;BME280;3745;56.964;24.128;2023-05-12T04:48:20;102662.22;;;14.52;100.00
7407;BME280;3745;56.964;24.128;2023-05-12T04:50:46;102659.13;;;14.62;100.00
7407;BME280;3745;56.964;24.128;2023-05-12T04:53:14;102645.56;;;14.63;100.00
7407;BME280;3745;56.964;24.128;2023-05-12T04:55:40;102666.50;;;14.85;100.00
7407;BME280;3745;56.964;24.128;2023-05-12T04:58:05;102637.31;;;14.74;100.00
7407;BME280;3745;56.964;24.128;2023-05-12T05:00:31;102648.09;;;14.95;100.00
7407;BME280;3745;56.964;24.128;2023-05-12T05:02:56;102655.88;;;15.01;100.00
7407;BME280;3745;56.964;24.128;2023-05-12T05:05:22;102632.56;;;14.86;100.00
7407;BME280;3745;56.964;24.128;2023-05-12T05:07:48;102655.25;;;15.11;100.00
7407;BME280;3745;56.964;24.128;2023-05-12T05:10:13;102633.22;;;15.13;100.00
7407;BME280;3745;56.964;24.128;2023-05-12T05:12:39;102662.53;;;15.30;100.00
7407;BME280;3745;56.964;24.128;2023-05-12T05:15:05;102664.75;;;15.51;100.00
7407;BME280;3745;56.964;24.128;2023-05-12T05:17:31;102658.97;;;15.58;100.00
7407;BME280;3745;56.964;24.128;2023-05-12T05:19:58;102651.44;;;15.62;100.00
7407;BME280;3745;56.964;24.128;2023-05-12T05:22:23;102660.31;;;15.80;100.00
7407;BME280;3745;56.964;24.128;2023-05-12T05:24:49;102631.34;;;15.78;100.00
7407;BME280;3745;56.964;24.128;2023-05-12T05:27:15;102632.66;;;15.99;100.00
7407;BME280;3745;56.964;24.128;2023-05-12T05:29:41;102633.69;;;16.09;100.00
7407;BME280;3745;56.964;24.128;2023-05-12T05:32:06;102637.31;;;16.20;95.82
7407;BME280;3745;56.964;24.128;2023-05-12T05:34:32;102659.19;;;16.49;93.44
7407;BME280;3745;56.964;24.128;2023-05-12T05:36:58;102662.84;;;16.60;93.06
7407;BME280;3745;56.964;24.128;2023-05-12T05:39:23;102664.72;;;16.70;91.95
7407;BME280;3745;56.964;24.128;2023-05-12T05:41:49;102620.28;;;16.62;89.91
7407;BME280;3745;56.964;24.128;2023-05-12T05:44:15;102643.59;;;16.80;89.76
7407;BME280;3745;56.964;24.128;2023-05-12T05:46:40;102666.13;;;17.00;89.02
7407;BME280;3745;56.964;24.128;2023-05-12T05:49:06;102654.09;;;16.96;89.36
7407;BME280;3745;56.964;24.128;2023-05-12T05:51:31;102662.88;;;17.10;90.36
7407;BME280;3745;56.964;24.128;2023-05-12T05:53:57;102671.53;;;17.18;86.66
7407;BME280;3745;56.964;24.128;2023-05-12T05:56:23;102663.22;;;17.31;84.54
7407;BME280;3745;56.964;24.128;2023-05-12T05:58:48;102665.00;;;17.38;83.61
7407;BME280;3745;56.964;24.128;2023-05-12T06:01:14;102670.31;;;17.47;83.29
7407;BME280;3745;56.964;24.128;2023-05-12T06:03:39;102654.78;;;17.38;85.51
7407;BME280;3745;56.964;24.128;2023-05-12T06:06:05;102653.22;;;17.46;83.44
7407;BME280;3745;56.964;24.128;2023-05-12T06:08:31;102658.66;;;17.67;79.44
7407;BME280;3745;56.964;24.128;2023-05-12T06:10:56;102617.28;;;17.40;78.67
7407;BME280;3745;56.964;24.128;2023-05-12T06:13:22;102653.75;;;17.82;78.97
7407;BME280;3745;56.964;24.128;2023-05-12T06:15:47;102650.31;;;17.80;78.45
7407;BME280;3745;56.964;24.128;2023-05-12T06:18:13;102654.00;;;18.01;78.07
7407;BME280;3745;56.964;24.128;2023-05-12T06:20:38;102649.84;;;18.10;75.13
7407;BME280;3745;56.964;24.128;2023-05-12T06:23:05;102664.50;;;18.22;74.70
7407;BME280;3745;56.964;24.128;2023-05-12T06:25:31;102671.56;;;18.41;72.77
7407;BME280;3745;56.964;24.128;2023-05-12T06:27:57;102630.34;;;18.23;71.47
7407;BME280;3745;56.964;24.128;2023-05-12T06:30:23;102675.25;;;18.64;70.76
7407;BME280;3745;56.964;24.128;2023-05-12T06:32:48;102664.19;;;18.68;70.08
7407;BME280;3745;56.964;24.128;2023-05-12T06:35:14;102617.88;;;18.52;68.43
7407;BME280;3745;56.964;24.128;2023-05-12T06:37:40;102657.41;;;18.73;66.95
7407;BME280;3745;56.964;24.128;2023-05-12T06:40:06;102675.66;;;19.04;66.29
7407;BME280;3745;56.964;24.128;2023-05-12T06:42:32;102619.00;;;18.82;66.97
7407;BME280;3745;56.964;24.128;2023-05-12T06:44:57;102685.19;;;19.18;66.58
7407;BME280;3745;56.964;24.128;2023-05-12T06:47:25;102676.00;;;19.43;66.78
7407;BME280;3745;56.964;24.128;2023-05-12T06:49:50;102680.38;;;19.56;66.54
7407;BME280;3745;56.964;24.128;2023-05-12T06:52:16;102676.16;;;19.67;65.92
7407;BME280;3745;56.964;24.128;2023-05-12T06:54:42;102679.63;;;19.74;64.40
7407;BME280;3745;56.964;24.128;2023-05-12T06:57:08;102635.66;;;19.31;61.72
7407;BME280;3745;56.964;24.128;2023-05-12T06:59:34;102688.16;;;19.68;60.47
7407;BME280;3745;56.964;24.128;2023-05-12T07:01:59;102683.06;;;19.77;58.52
7407;BME280;3745;56.964;24.128;2023-05-12T07:04:25;102677.06;;;19.77;58.92
7407;BME280;3745;56.964;24.128;2023-05-12T07:06:51;102686.56;;;19.94;56.84
7407;BME280;3745;56.964;24.128;2023-05-12T07:09:16;102684.84;;;19.96;55.88
7407;BME280;3745;56.964;24.128;2023-05-12T07:11:43;102680.63;;;20.06;55.53
7407;BME280;3745;56.964;24.128;2023-05-12T07:14:08;102636.84;;;19.83;52.94
7407;BME280;3745;56.964;24.128;2023-05-12T07:16:34;102684.97;;;20.16;54.35
7407;BME280;3745;56.964;24.128;2023-05-12T07:18:59;102681.56;;;20.25;55.35
7407;BME280;3745;56.964;24.128;2023-05-12T07:21:25;102681.59;;;20.31;55.35
7407;BME280;3745;56.964;24.128;2023-05-12T07:23:51;102679.94;;;20.42;54.37
7407;BME280;3745;56.964;24.128;2023-05-12T07:26:17;102686.81;;;20.49;54.25
7407;BME280;3745;56.964;24.128;2023-05-12T07:28:43;102680.81;;;20.50;54.25
7407;BME280;3745;56.964;24.128;2023-05-12T07:31:09;102634.44;;;20.27;55.77
7407;BME280;3745;56.964;24.128;2023-05-12T07:33:35;102678.28;;;20.62;55.17
7407;BME280;3745;56.964;24.128;2023-05-12T07:36:01;102631.06;;;20.43;51.96
7407;BME280;3745;56.964;24.128;2023-05-12T07:38:27;102674.00;;;20.75;51.29
7407;BME280;3745;56.964;24.128;2023-05-12T07:40:53;102678.31;;;20.89;50.23
7407;BME280;3745;56.964;24.128;2023-05-12T07:43:19;102662.88;;;20.79;47.02
7407;BME280;3745;56.964;24.128;2023-05-12T07:45:45;102636.25;;;20.75;45.25
7407;BME280;3745;56.964;24.128;2023-05-12T07:48:11;102664.59;;;20.90;44.62
7407;BME280;3745;56.964;24.128;2023-05-12T07:50:36;102690.38;;;21.08;44.32
7407;BME280;3745;56.964;24.128;2023-05-12T07:53:03;102689.53;;;21.16;42.97
7407;BME280;3745;56.964;24.128;2023-05-12T07:55:30;102686.94;;;21.10;41.25
7407;BME280;3745;56.964;24.128;2023-05-12T07:57:57;102651.72;;;20.99;42.12
7407;BME280;3745;56.964;24.128;2023-05-12T08:00:23;102662.84;;;21.07;41.87
7407;BME280;3745;56.964;24.128;2023-05-12T08:02:49;102681.78;;;21.25;43.08
7407;BME280;3745;56.964;24.128;2023-05-12T08:05:15;102685.22;;;21.33;42.00
7407;BME280;3745;56.964;24.128;2023-05-12T08:07:40;102635.41;;;21.03;42.80
7407;BME280;3745;56.964;24.128;2023-05-12T08:10:09;102644.00;;;21.12;42.16
7407;BME280;3745;56.964;24.128;2023-05-12T08:12:36;102682.66;;;21.28;42.93
7407;BME280;3745;56.964;24.128;2023-05-12T08:15:02;102638.84;;;21.21;42.91
7407;BME280;3745;56.964;24.128;2023-05-12T08:17:28;102685.19;;;21.54;43.14
7407;BME280;3745;56.964;24.128;2023-05-12T08:19:53;102662.88;;;21.44;43.45
7407;BME280;3745;56.964;24.128;2023-05-12T08:22:19;102681.69;;;21.76;42.91
7407;BME280;3745;56.964;24.128;2023-05-12T08:24:45;102669.63;;;21.81;42.70
7407;BME280;3745;56.964;24.128;2023-05-12T08:27:11;102619.09;;;21.41;41.06
7407;BME280;3745;56.964;24.128;2023-05-12T08:29:36;102676.56;;;21.67;41.25
7407;BME280;3745;56.964;24.128;2023-05-12T08:32:02;102643.94;;;21.57;41.08
7407;BME280;3745;56.964;24.128;2023-05-12T08:34:28;102664.47;;;21.93;41.71
7407;BME280;3745;56.964;24.128;2023-05-12T08:36:54;102656.78;;;21.77;40.43
7407;BME280;3745;56.964;24.128;2023-05-12T08:39:20;102635.34;;;21.61;41.11
7407;BME280;3745;56.964;24.128;2023-05-12T08:41:55;102666.22;;;21.82;40.27
7407;BME280;3745;56.964;24.128;2023-05-12T08:44:24;102634.47;;;21.68;40.53
7407;BME280;3745;56.964;24.128;2023-05-12T08:46:51;102671.31;;;22.06;40.47
7407;BME280;3745;56.964;24.128;2023-05-12T08:49:20;102667.88;;;22.07;39.82
7407;BME280;3745;56.964;24.128;2023-05-12T08:51:47;102623.22;;;21.81;40.41
7407;BME280;3745;56.964;24.128;2023-05-12T08:54:14;102616.38;;;21.80;40.29
7407;BME280;3745;56.964;24.128;2023-05-12T08:56:43;102666.97;;;22.18;40.17
7407;BME280;3745;56.964;24.128;2023-05-12T08:59:10;102653.25;;;22.08;39.20
7407;BME280;3745;56.964;24.128;2023-05-12T09:01:36;102650.63;;;22.12;39.17
7407;BME280;3745;56.964;24.128;2023-05-12T09:04:05;102657.56;;;22.04;39.00
7407;BME280;3745;56.964;24.128;2023-05-12T09:06:31;102652.53;;;21.62;39.42
7407;BME280;3745;56.964;24.128;2023-05-12T09:08:57;102608.75;;;21.53;38.88
7407;BME280;3745;56.964;24.128;2023-05-12T09:11:23;102621.56;;;21.71;39.30
7407;BME280;3745;56.964;24.128;2023-05-12T09:14:00;102649.00;;;21.93;39.94
7407;BME280;3745;56.964;24.128;2023-05-12T09:16:32;102587.16;;;21.75;40.04
7407;BME280;3745;56.964;24.128;2023-05-12T09:19:00;102592.28;;;21.81;39.05
7407;BME280;3745;56.964;24.128;2023-05-12T09:21:26;102637.72;;;22.19;38.71
7407;BME280;3745;56.964;24.128;2023-05-12T09:26:25;102638.47;;;22.39;37.79
7407;BME280;3745;56.964;24.128;2023-05-12T09:28:52;102645.28;;;22.49;38.06
7407;BME280;3745;56.964;24.128;2023-05-12T09:31:23;102634.88;;;22.67;38.13
7407;BME280;3745;56.964;24.128;2023-05-12T09:33:50;102637.34;;;22.81;37.74
7407;BME280;3745;56.964;24.128;2023-05-12T09:36:21;102636.41;;;22.89;36.87
7407;BME280;3745;56.964;24.128;2023-05-12T09:39:02;102637.31;;;22.84;36.16
7407;BME280;3745;56.964;24.128;2023-05-12T09:41:40;102614.25;;;22.61;36.44
7407;BME280;3745;56.964;24.128;2023-05-12T09:44:07;102598.75;;;22.61;36.35
7407;BME280;3745;56.964;24.128;2023-05-12T09:46:33;102634.72;;;22.88;36.46
7407;BME280;3745;56.964;24.128;2023-05-12T09:49:00;102605.44;;;22.86;36.85
7407;BME280;3745;56.964;24.128;2023-05-12T09:51:26;102625.06;;;23.05;36.18
7407;BME280;3745;56.964;24.128;2023-05-12T09:53:53;102591.78;;;22.75;36.12
7407;BME280;3745;56.964;24.128;2023-05-12T09:56:19;102618.97;;;23.15;36.06
7407;BME280;3745;56.964;24.128;2023-05-12T09:58:47;102603.66;;;22.94;36.13
7407;BME280;3745;56.964;24.128;2023-05-12T10:01:18;102603.81;;;22.79;35.60
7407;BME280;3745;56.964;24.128;2023-05-12T10:03:47;102622.56;;;22.96;36.12
7407;BME280;3745;56.964;24.128;2023-05-12T10:06:26;102615.59;;;23.04;35.92
7407;BME280;3745;56.964;24.128;2023-05-12T10:09:15;102618.25;;;23.00;36.59
7407;BME280;3745;56.964;24.128;2023-05-12T10:11:44;102615.75;;;22.89;35.28
7407;BME280;3745;56.964;24.128;2023-05-12T10:14:11;102566.88;;;22.62;37.05
7407;BME280;3745;56.964;24.128;2023-05-12T10:16:39;102548.81;;;22.62;36.10
7407;BME280;3745;56.964;24.128;2023-05-12T10:19:05;102610.44;;;23.04;35.95
7407;BME280;3745;56.964;24.128;2023-05-12T10:21:32;102596.78;;;22.93;35.20
7407;BME280;3745;56.964;24.128;2023-05-12T10:23:58;102609.72;;;22.89;36.42
7407;BME280;3745;56.964;24.128;2023-05-12T10:26:24;102612.25;;;22.96;35.70
7407;BME280;3745;56.964;24.128;2023-05-12T10:28:50;102581.28;;;22.92;35.54
7407;BME280;3745;56.964;24.128;2023-05-12T10:31:18;102607.84;;;23.04;35.56
7407;BME280;3745;56.964;24.128;2023-05-12T10:33:58;102390.31;;;21.91;35.33
7407;BME280;3745;56.964;24.128;2023-05-12T10:36:24;102610.47;;;23.01;35.43
7407;BME280;3745;56.964;24.128;2023-05-12T10:38:49;102539.38;;;22.59;35.61
7407;BME280;3745;56.964;24.128;2023-05-12T10:41:15;102574.50;;;22.80;35.50
7407;BME280;3745;56.964;24.128;2023-05-12T10:43:47;102602.72;;;23.01;35.40
7407;BME280;3745;56.964;24.128;2023-05-12T10:46:16;102601.78;;;23.11;35.42
7407;BME280;3745;56.964;24.128;2023-05-12T10:53:52;102571.59;;;23.15;35.05
7407;BME280;3745;56.964;24.128;2023-05-12T10:56:26;102601.53;;;23.33;34.81
7407;BME280;3745;56.964;24.128;2023-05-12T11:02:01;102605.09;;;23.26;35.09
7407;BME280;3745;56.964;24.128;2023-05-12T11:04:50;102580.06;;;23.26;35.17
7407;BME280;3745;56.964;24.128;2023-05-12T11:07:21;102534.53;;;23.19;35.97
7407;BME280;3745;56.964;24.128;2023-05-12T11:09:48;102596.91;;;23.63;34.65
7407;BME280;3745;56.964;24.128;2023-05-12T11:12:14;102588.34;;;23.60;34.23
7407;BME280;3745;56.964;24.128;2023-05-12T11:14:42;102591.03;;;23.51;34.34
7407;BME280;3745;56.964;24.128;2023-05-12T11:17:08;102583.41;;;23.36;34.27
7407;BME280;3745;56.964;24.128;2023-05-12T11:19:35;102587.78;;;23.31;34.21
7407;BME280;3745;56.964;24.128;2023-05-12T11:22:05;102605.09;;;23.26;33.52
7407;BME280;3745;56.964;24.128;2023-05-12T11:24:32;102594.69;;;23.32;33.80
7407;BME280;3745;56.964;24.128;2023-05-12T11:26:58;102594.69;;;23.32;33.98
7407;BME280;3745;56.964;24.128;2023-05-12T11:29:23;102597.38;;;23.21;34.06
7407;BME280;3745;56.964;24.128;2023-05-12T11:31:50;102587.41;;;22.80;33.59
7407;BME280;3745;56.964;24.128;2023-05-12T11:34:20;102567.75;;;22.64;34.24
7407;BME280;3745;56.964;24.128;2023-05-12T11:36:47;102605.44;;;22.86;34.47
7407;BME280;3745;56.964;24.128;2023-05-12T11:39:15;102602.06;;;22.81;34.94
7407;BME280;3745;56.964;24.128;2023-05-12T11:41:41;102571.25;;;22.57;34.38
7407;BME280;3745;56.964;24.128;2023-05-12T11:44:21;102598.59;;;22.85;34.18
7407;BME280;3745;56.964;24.128;2023-05-12T11:49:29;102567.63;;;22.82;34.40
7407;BME280;3745;56.964;24.128;2023-05-12T11:51:56;102565.91;;;22.81;34.95
7407;BME280;3745;56.964;24.128;2023-05-12T11:54:23;102594.13;;;23.01;35.04
7407;BME280;3745;56.964;24.128;2023-05-12T11:56:53;102581.16;;;23.07;34.60
7407;BME280;3745;56.964;24.128;2023-05-12T11:59:30;102589.66;;;23.16;34.65
7407;BME280;3745;56.964;24.128;2023-05-12T12:01:57;102582.75;;;23.18;34.99
7407;BME280;3745;56.964;24.128;2023-05-12T12:04:37;102509.25;;;22.66;34.61
7407;BME280;3745;56.964;24.128;2023-05-12T12:07:05;102594.13;;;23.01;34.48
7407;BME280;3745;56.964;24.128;2023-05-12T12:09:35;102559.78;;;22.91;34.64
7407;BME280;3745;56.964;24.128;2023-05-12T12:12:03;102564.03;;;22.97;34.30
7407;BME280;3745;56.964;24.128;2023-05-12T12:14:30;102537.47;;;22.84;34.82
7407;BME280;3745;56.964;24.128;2023-05-12T12:16:56;102590.00;;;22.80;33.82
7407;BME280;3745;56.964;24.128;2023-05-12T12:19:22;102582.34;;;22.70;34.54
7407;BME280;3745;56.964;24.128;2023-05-12T12:21:47;102567.81;;;22.52;34.70
7407;BME280;3745;56.964;24.128;2023-05-12T12:24:13;102584.94;;;22.62;35.77
7407;BME280;3745;56.964;24.128;2023-05-12T12:26:38;102560.91;;;22.57;34.72
7407;BME280;3745;56.964;24.128;2023-05-12T12:29:04;102591.84;;;22.63;34.24
7407;BME280;3745;56.964;24.128;2023-05-12T12:31:30;102579.91;;;22.47;34.08
7407;BME280;3745;56.964;24.128;2023-05-12T12:33:55;102588.50;;;22.46;34.96
7407;BME280;3745;56.964;24.128;2023-05-12T12:36:21;102589.41;;;22.45;33.98
7407;BME280;3745;56.964;24.128;2023-05-12T12:38:47;102555.06;;;22.31;34.10
7407;BME280;3745;56.964;24.128;2023-05-12T12:41:12;102585.06;;;22.50;34.33
7407;BME280;3745;56.964;24.128;2023-05-12T12:43:38;102581.63;;;22.51;35.26
7407;BME280;3745;56.964;24.128;2023-05-12T12:46:04;102567.75;;;22.64;34.98
7407;BME280;3745;56.964;24.128;2023-05-12T12:48:30;102560.88;;;22.63;34.43
7407;BME280;3745;56.964;24.128;2023-05-12T12:50:56;102560.88;;;22.66;34.31
7407;BME280;3745;56.964;24.128;2023-05-12T12:53:22;102534.41;;;22.35;34.59
7407;BME280;3745;56.964;24.128;2023-05-12T12:55:48;102579.84;;;22.56;34.51
7407;BME280;3745;56.964;24.128;2023-05-12T12:58:13;102573.78;;;22.60;34.72
7407;BME280;3745;56.964;24.128;2023-05-12T13:00:39;102584.16;;;22.57;34.68
7407;BME280;3745;56.964;24.128;2023-05-12T13:03:05;102560.97;;;22.51;34.78
7407;BME280;3745;56.964;24.128;2023-05-12T13:05:32;102546.34;;;22.47;34.73